sensor_id;sensor_type;location;lat;lon;timestamp;P1;durP1;ratioP1;P2;durP2;ratioP2
65597;SDS011;52267;51.984;20.956;2024-03-06T00:00:56;32.50;;;16.30;;
65597;SDS011;52267;51.984;20.956;2024-03-06T00:03:43;36.20;;;16.90;;
65597;SDS011;52267;51.984;20.956;2024-03-06T00:06:10;40.70;;;18.10;;
65597;SDS011;52267;51.984;20.956;2024-03-06T00:08:37;40.40;;;18.60;;
65597;SDS011;52267;51.984;20.956;2024-03-06T00:11:04;36.40;;;17.10;;
65597;SDS011;52267;51.984;20.956;2024-03-06T00:13:31;39.30;;;17.70;;
65597;SDS011;52267;51.984;20.956;2024-03-06T00:15:58;36.30;;;18.70;;
65597;SDS011;52267;51.984;20.956;2024-03-06T00:18:25;36.30;;;17.50;;
65597;SDS011;52267;51.984;20.956;2024-03-06T00:20:52;43.10;;;18.40;;
65597;SDS011;52267;51.984;20.956;2024-03-06T00:23:19;40.10;;;18.10;;
65597;SDS011;52267;51.984;20.956;2024-03-06T00:25:46;41.40;;;19.20;;
65597;SDS011;52267;51.984;20.956;2024-03-06T00:28:13;40.60;;;19.70;;
65597;SDS011;52267;51.984;20.956;2024-03-06T00:30:40;40.20;;;19.40;;
65597;SDS011;52267;51.984;20.956;2024-03-06T00:33:08;41.10;;;19.20;;
65597;SDS011;52267;51.984;20.956;2024-03-06T00:35:35;40.10;;;17.90;;
65597;SDS011;52267;51.984;20.956;2024-03-06T00:38:02;39.70;;;20.00;;
65597;SDS011;52267;51.984;20.956;2024-03-06T00:40:29;37.20;;;18.90;;
65597;SDS011;52267;51.984;20.956;2024-03-06T00:42:57;39.40;;;17.90;;
65597;SDS011;52267;51.984;20.956;2024-03-06T00:45:24;40.80;;;18.50;;
65597;SDS011;52267;51.984;20.956;2024-03-06T00:47:51;38.40;;;18.90;;
65597;SDS011;52267;51.984;20.956;2024-03-06T00:50:18;41.20;;;19.00;;
65597;SDS011;52267;51.984;20.956;2024-03-06T00:52:48;36.40;;;18.20;;
65597;SDS011;52267;51.984;20.956;2024-03-06T00:55:16;40.10;;;19.30;;
65597;SDS011;52267;51.984;20.956;2024-03-06T00:57:43;43.00;;;20.40;;
65597;SDS011;52267;51.984;20.956;2024-03-06T01:00:10;39.30;;;19.70;;
65597;SDS011;52267;51.984;20.956;2024-03-06T01:02:38;40.50;;;18.80;;
65597;SDS011;52267;51.984;20.956;2024-03-06T01:05:06;36.50;;;17.80;;
65597;SDS011;52267;51.984;20.956;2024-03-06T01:07:39;37.60;;;17.60;;
65597;SDS011;52267;51.984;20.956;2024-03-06T01:10:06;42.40;;;19.90;;
65597;SDS011;52267;51.984;20.956;2024-03-06T01:12:35;40.30;;;17.90;;
65597;SDS011;52267;51.984;20.956;2024-03-06T01:15:02;36.00;;;18.20;;
65597;SDS011;52267;51.984;20.956;2024-03-06T01:17:30;37.20;;;18.90;;
65597;SDS011;52267;51.984;20.956;2024-03-06T01:19:57;41.00;;;18.90;;
65597;SDS011;52267;51.984;20.956;2024-03-06T01:22:26;38.30;;;19.10;;
65597;SDS011;52267;51.984;20.956;2024-03-06T01:24:53;38.60;;;18.20;;
65597;SDS011;52267;51.984;20.956;2024-03-06T01:27:20;39.50;;;19.10;;
65597;SDS011;52267;51.984;20.956;2024-03-06T01:29:47;38.60;;;18.80;;
65597;SDS011;52267;51.984;20.956;2024-03-06T01:32:14;40.30;;;20.70;;
65597;SDS011;52267;51.984;20.956;2024-03-06T01:34:41;43.00;;;19.40;;
65597;SDS011;52267;51.984;20.956;2024-03-06T01:37:08;37.40;;;19.40;;
65597;SDS011;52267;51.984;20.956;2024-03-06T01:39:35;44.00;;;20.90;;
65597;SDS011;52267;51.984;20.956;2024-03-06T01:42:02;41.30;;;19.80;;
65597;SDS011;52267;51.984;20.956;2024-03-06T01:44:30;40.20;;;19.50;;
65597;SDS011;52267;51.984;20.956;2024-03-06T01:46:57;41.30;;;20.40;;
65597;SDS011;52267;51.984;20.956;2024-03-06T01:49:26;39.40;;;21.50;;
65597;SDS011;52267;51.984;20.956;2024-03-06T01:51:56;37.90;;;19.30;;
65597;SDS011;52267;51.984;20.956;2024-03-06T01:54:24;43.70;;;19.20;;
65597;SDS011;52267;51.984;20.956;2024-03-06T01:56:52;44.70;;;20.00;;
65597;SDS011;52267;51.984;20.956;2024-03-06T01:59:21;40.20;;;20.40;;
65597;SDS011;52267;51.984;20.956;2024-03-06T02:01:53;41.10;;;20.60;;
65597;SDS011;52267;51.984;20.956;2024-03-06T02:04:20;39.20;;;19.50;;
65597;SDS011;52267;51.984;20.956;2024-03-06T02:06:48;44.40;;;20.70;;
65597;SDS011;52267;51.984;20.956;2024-03-06T02:09:16;44.60;;;20.60;;
65597;SDS011;52267;51.984;20.956;2024-03-06T02:11:44;44.90;;;21.00;;
65597;SDS011;52267;51.984;20.956;2024-03-06T02:14:11;46.90;;;21.80;;
65597;SDS011;52267;51.984;20.956;2024-03-06T02:16:39;44.60;;;21.10;;
65597;SDS011;52267;51.984;20.956;2024-03-06T02:19:06;46.30;;;20.20;;
65597;SDS011;52267;51.984;20.956;2024-03-06T02:21:33;44.20;;;21.70;;
65597;SDS011;52267;51.984;20.956;2024-03-06T02:24:00;45.70;;;21.20;;
65597;SDS011;52267;51.984;20.956;2024-03-06T02:26:27;49.00;;;21.70;;
65597;SDS011;52267;51.984;20.956;2024-03-06T02:28:55;48.80;;;23.20;;
65597;SDS011;52267;51.984;20.956;2024-03-06T02:31:22;50.90;;;23.20;;
65597;SDS011;52267;51.984;20.956;2024-03-06T02:33:50;46.20;;;22.00;;
65597;SDS011;52267;51.984;20.956;2024-03-06T02:36:17;47.90;;;22.60;;
65597;SDS011;52267;51.984;20.956;2024-03-06T02:38:45;43.50;;;21.60;;
65597;SDS011;52267;51.984;20.956;2024-03-06T02:41:12;43.50;;;22.30;;
65597;SDS011;52267;51.984;20.956;2024-03-06T02:43:42;48.10;;;23.60;;
65597;SDS011;52267;51.984;20.956;2024-03-06T02:46:09;51.20;;;23.70;;
65597;SDS011;52267;51.984;20.956;2024-03-06T02:48:36;48.00;;;22.20;;
65597;SDS011;52267;51.984;20.956;2024-03-06T02:51:03;51.30;;;25.00;;
65597;SDS011;52267;51.984;20.956;2024-03-06T02:53:30;49.40;;;23.70;;
65597;SDS011;52267;51.984;20.956;2024-03-06T02:55:58;48.20;;;23.80;;
65597;SDS011;52267;51.984;20.956;2024-03-06T02:58:25;51.30;;;23.10;;
65597;SDS011;52267;51.984;20.956;2024-03-06T03:00:52;46.70;;;23.90;;
65597;SDS011;52267;51.984;20.956;2024-03-06T03:03:19;53.40;;;24.40;;
65597;SDS011;52267;51.984;20.956;2024-03-06T03:05:46;49.30;;;24.00;;
65597;SDS011;52267;51.984;20.956;2024-03-06T03:08:13;50.10;;;24.80;;
65597;SDS011;52267;51.984;20.956;2024-03-06T03:10:40;52.90;;;24.10;;
65597;SDS011;52267;51.984;20.956;2024-03-06T03:13:07;53.70;;;24.80;;
65597;SDS011;52267;51.984;20.956;2024-03-06T03:15:34;53.60;;;24.50;;
65597;SDS011;52267;51.984;20.956;2024-03-06T03:18:01;46.70;;;23.70;;
65597;SDS011;52267;51.984;20.956;2024-03-06T03:20:28;50.90;;;23.20;;
65597;SDS011;52267;51.984;20.956;2024-03-06T03:22:55;53.00;;;24.90;;
65597;SDS011;52267;51.984;20.956;2024-03-06T03:25:22;53.40;;;25.50;;
65597;SDS011;52267;51.984;20.956;2024-03-06T03:27:49;54.60;;;25.80;;
65597;SDS011;52267;51.984;20.956;2024-03-06T03:30:17;50.40;;;25.50;;
65597;SDS011;52267;51.984;20.956;2024-03-06T03:32:48;49.00;;;24.80;;
65597;SDS011;52267;51.984;20.956;2024-03-06T03:35:15;52.00;;;24.30;;
65597;SDS011;52267;51.984;20.956;2024-03-06T03:37:43;48.40;;;25.20;;
65597;SDS011;52267;51.984;20.956;2024-03-06T03:40:10;53.30;;;26.50;;
65597;SDS011;52267;51.984;20.956;2024-03-06T03:42:41;48.20;;;26.10;;
65597;SDS011;52267;51.984;20.956;2024-03-06T03:45:08;52.20;;;26.30;;
65597;SDS011;52267;51.984;20.956;2024-03-06T03:47:35;49.90;;;26.90;;
65597;SDS011;52267;51.984;20.956;2024-03-06T03:50:02;51.10;;;26.00;;
65597;SDS011;52267;51.984;20.956;2024-03-06T03:52:30;55.30;;;27.40;;
65597;SDS011;52267;51.984;20.956;2024-03-06T03:54:57;60.80;;;27.90;;
65597;SDS011;52267;51.984;20.956;2024-03-06T03:57:23;48.50;;;26.70;;
65597;SDS011;52267;51.984;20.956;2024-03-06T03:59:50;45.30;;;25.70;;
65597;SDS011;52267;51.984;20.956;2024-03-06T04:02:18;49.50;;;25.60;;
65597;SDS011;52267;51.984;20.956;2024-03-06T04:04:45;50.00;;;26.20;;
65597;SDS011;52267;51.984;20.956;2024-03-06T04:07:12;47.70;;;26.40;;
65597;SDS011;52267;51.984;20.956;2024-03-06T04:09:39;49.20;;;26.10;;
65597;SDS011;52267;51.984;20.956;2024-03-06T04:12:06;49.20;;;26.70;;
65597;SDS011;52267;51.984;20.956;2024-03-06T04:14:33;53.40;;;27.10;;
65597;SDS011;52267;51.984;20.956;2024-03-06T04:17:00;44.60;;;24.40;;
65597;SDS011;52267;51.984;20.956;2024-03-06T04:19:29;43.50;;;24.10;;
65597;SDS011;52267;51.984;20.956;2024-03-06T04:21:56;40.00;;;23.80;;
65597;SDS011;52267;51.984;20.956;2024-03-06T04:24:23;42.10;;;22.40;;
65597;SDS011;52267;51.984;20.956;2024-03-06T04:26:50;44.10;;;23.80;;
65597;SDS011;52267;51.984;20.956;2024-03-06T04:29:17;43.60;;;22.40;;
65597;SDS011;52267;51.984;20.956;2024-03-06T04:31:44;39.70;;;23.20;;
65597;SDS011;52267;51.984;20.956;2024-03-06T04:34:11;37.10;;;22.60;;
65597;SDS011;52267;51.984;20.956;2024-03-06T04:36:38;39.90;;;22.70;;
65597;SDS011;52267;51.984;20.956;2024-03-06T04:39:04;40.10;;;22.50;;
65597;SDS011;52267;51.984;20.956;2024-03-06T04:41:33;37.60;;;21.90;;
65597;SDS011;52267;51.984;20.956;2024-03-06T04:44:00;34.60;;;22.00;;
65597;SDS011;52267;51.984;20.956;2024-03-06T04:46:28;41.10;;;22.50;;
65597;SDS011;52267;51.984;20.956;2024-03-06T04:48:55;35.10;;;20.30;;
65597;SDS011;52267;51.984;20.956;2024-03-06T04:51:21;34.50;;;21.00;;
65597;SDS011;52267;51.984;20.956;2024-03-06T04:53:48;33.00;;;21.50;;
65597;SDS011;52267;51.984;20.956;2024-03-06T04:56:15;43.10;;;20.70;;
65597;SDS011;52267;51.984;20.956;2024-03-06T04:58:45;34.00;;;19.90;;
65597;SDS011;52267;51.984;20.956;2024-03-06T05:01:12;32.40;;;20.70;;
65597;SDS011;52267;51.984;20.956;2024-03-06T05:03:39;34.20;;;20.40;;
65597;SDS011;52267;51.984;20.956;2024-03-06T05:06:06;37.30;;;20.20;;
65597;SDS011;52267;51.984;20.956;2024-03-06T05:08:33;31.20;;;18.80;;
65597;SDS011;52267;51.984;20.956;2024-03-06T05:11:01;32.30;;;19.40;;
65597;SDS011;52267;51.984;20.956;2024-03-06T05:13:29;37.80;;;22.40;;
65597;SDS011;52267;51.984;20.956;2024-03-06T05:15:55;31.90;;;19.80;;
65597;SDS011;52267;51.984;20.956;2024-03-06T05:18:22;29.40;;;18.90;;
65597;SDS011;52267;51.984;20.956;2024-03-06T05:20:49;30.60;;;17.80;;
65597;SDS011;52267;51.984;20.956;2024-03-06T05:23:17;32.90;;;20.10;;
65597;SDS011;52267;51.984;20.956;2024-03-06T05:25:44;33.60;;;20.30;;
65597;SDS011;52267;51.984;20.956;2024-03-06T05:28:11;31.70;;;19.70;;
65597;SDS011;52267;51.984;20.956;2024-03-06T05:30:38;33.10;;;20.10;;
65597;SDS011;52267;51.984;20.956;2024-03-06T05:33:05;33.30;;;19.60;;
65597;SDS011;52267;51.984;20.956;2024-03-06T05:35:32;30.30;;;20.60;;
65597;SDS011;52267;51.984;20.956;2024-03-06T05:37:59;31.50;;;19.00;;
65597;SDS011;52267;51.984;20.956;2024-03-06T05:40:26;31.60;;;19.00;;
65597;SDS011;52267;51.984;20.956;2024-03-06T05:42:53;34.30;;;19.70;;
65597;SDS011;52267;51.984;20.956;2024-03-06T05:45:20;32.00;;;18.80;;
65597;SDS011;52267;51.984;20.956;2024-03-06T05:47:47;35.70;;;19.70;;
65597;SDS011;52267;51.984;20.956;2024-03-06T05:50:14;34.20;;;20.30;;
65597;SDS011;52267;51.984;20.956;2024-03-06T05:52:42;35.20;;;20.50;;
65597;SDS011;52267;51.984;20.956;2024-03-06T05:55:09;34.20;;;19.40;;
65597;SDS011;52267;51.984;20.956;2024-03-06T05:57:36;35.80;;;19.90;;
65597;SDS011;52267;51.984;20.956;2024-03-06T06:00:03;30.80;;;18.50;;
65597;SDS011;52267;51.984;20.956;2024-03-06T06:02:37;33.50;;;19.20;;
65597;SDS011;52267;51.984;20.956;2024-03-06T06:05:05;31.60;;;17.10;;
65597;SDS011;52267;51.984;20.956;2024-03-06T06:07:33;31.40;;;18.50;;
65597;SDS011;52267;51.984;20.956;2024-03-06T06:10:00;36.90;;;21.00;;
65597;SDS011;52267;51.984;20.956;2024-03-06T06:12:27;31.10;;;18.50;;
65597;SDS011;52267;51.984;20.956;2024-03-06T06:14:54;34.70;;;20.60;;
65597;SDS011;52267;51.984;20.956;2024-03-06T06:17:21;33.10;;;20.30;;
65597;SDS011;52267;51.984;20.956;2024-03-06T06:19:49;33.90;;;19.40;;
65597;SDS011;52267;51.984;20.956;2024-03-06T06:22:16;32.40;;;19.70;;
65597;SDS011;52267;51.984;20.956;2024-03-06T06:24:43;28.70;;;16.50;;
65597;SDS011;52267;51.984;20.956;2024-03-06T06:27:12;34.20;;;20.30;;
65597;SDS011;52267;51.984;20.956;2024-03-06T06:29:39;29.60;;;19.10;;
65597;SDS011;52267;51.984;20.956;2024-03-06T06:32:06;34.40;;;20.10;;
65597;SDS011;52267;51.984;20.956;2024-03-06T06:34:33;34.10;;;20.00;;
65597;SDS011;52267;51.984;20.956;2024-03-06T06:37:00;32.50;;;18.80;;
65597;SDS011;52267;51.984;20.956;2024-03-06T06:39:28;32.60;;;19.40;;
65597;SDS011;52267;51.984;20.956;2024-03-06T06:41:55;31.60;;;19.30;;
65597;SDS011;52267;51.984;20.956;2024-03-06T06:44:22;31.10;;;18.60;;
65597;SDS011;52267;51.984;20.956;2024-03-06T06:46:49;25.30;;;14.90;;
65597;SDS011;52267;51.984;20.956;2024-03-06T06:49:16;32.40;;;20.10;;
65597;SDS011;52267;51.984;20.956;2024-03-06T06:51:44;28.70;;;15.80;;
65597;SDS011;52267;51.984;20.956;2024-03-06T06:54:11;21.20;;;12.50;;
65597;SDS011;52267;51.984;20.956;2024-03-06T06:56:38;23.80;;;14.40;;
65597;SDS011;52267;51.984;20.956;2024-03-06T06:59:05;31.60;;;18.10;;
65597;SDS011;52267;51.984;20.956;2024-03-06T07:01:32;32.50;;;17.60;;
65597;SDS011;52267;51.984;20.956;2024-03-06T07:03:59;29.60;;;18.80;;
65597;SDS011;52267;51.984;20.956;2024-03-06T07:06:28;30.30;;;18.40;;
65597;SDS011;52267;51.984;20.956;2024-03-06T07:08:55;32.80;;;18.60;;
65597;SDS011;52267;51.984;20.956;2024-03-06T07:11:22;29.90;;;18.20;;
65597;SDS011;52267;51.984;20.956;2024-03-06T07:13:51;27.80;;;16.70;;
65597;SDS011;52267;51.984;20.956;2024-03-06T07:16:18;33.90;;;20.30;;
65597;SDS011;52267;51.984;20.956;2024-03-06T07:18:45;33.80;;;19.60;;
65597;SDS011;52267;51.984;20.956;2024-03-06T07:21:13;29.40;;;17.20;;
65597;SDS011;52267;51.984;20.956;2024-03-06T07:23:40;34.40;;;19.70;;
65597;SDS011;52267;51.984;20.956;2024-03-06T07:26:07;32.80;;;19.50;;
65597;SDS011;52267;51.984;20.956;2024-03-06T07:28:34;28.80;;;18.00;;
65597;SDS011;52267;51.984;20.956;2024-03-06T07:31:01;31.60;;;18.90;;
65597;SDS011;52267;51.984;20.956;2024-03-06T07:33:31;29.40;;;17.30;;
65597;SDS011;52267;51.984;20.956;2024-03-06T07:36:00;31.40;;;18.20;;
65597;SDS011;52267;51.984;20.956;2024-03-06T07:38:27;29.70;;;16.10;;
65597;SDS011;52267;51.984;20.956;2024-03-06T07:40:55;32.00;;;18.10;;
65597;SDS011;52267;51.984;20.956;2024-03-06T07:43:22;28.80;;;17.60;;
65597;SDS011;52267;51.984;20.956;2024-03-06T07:45:49;30.40;;;18.20;;
65597;SDS011;52267;51.984;20.956;2024-03-06T07:48:17;32.40;;;17.70;;
65597;SDS011;52267;51.984;20.956;2024-03-06T07:50:44;30.60;;;19.00;;
65597;SDS011;52267;51.984;20.956;2024-03-06T07:53:11;35.30;;;20.00;;
65597;SDS011;52267;51.984;20.956;2024-03-06T07:55:37;19.90;;;11.90;;
65597;SDS011;52267;51.984;20.956;2024-03-06T07:58:04;34.20;;;18.30;;
65597;SDS011;52267;51.984;20.956;2024-03-06T08:00:30;32.30;;;18.80;;
65597;SDS011;52267;51.984;20.956;2024-03-06T08:02:57;22.90;;;13.70;;
65597;SDS011;52267;51.984;20.956;2024-03-06T08:05:23;31.40;;;18.40;;
65597;SDS011;52267;51.984;20.956;2024-03-06T08:07:49;22.60;;;14.30;;
65597;SDS011;52267;51.984;20.956;2024-03-06T08:10:15;29.50;;;17.40;;
65597;SDS011;52267;51.984;20.956;2024-03-06T08:12:45;31.60;;;17.40;;
65597;SDS011;52267;51.984;20.956;2024-03-06T08:15:14;31.00;;;18.60;;
65597;SDS011;52267;51.984;20.956;2024-03-06T08:17:42;22.90;;;12.20;;
65597;SDS011;52267;51.984;20.956;2024-03-06T08:20:10;29.80;;;17.60;;
65597;SDS011;52267;51.984;20.956;2024-03-06T08:22:39;27.90;;;16.60;;
65597;SDS011;52267;51.984;20.956;2024-03-06T08:25:10;29.50;;;16.70;;
65597;SDS011;52267;51.984;20.956;2024-03-06T08:27:41;26.00;;;15.60;;
65597;SDS011;52267;51.984;20.956;2024-03-06T08:30:08;26.70;;;16.70;;
65597;SDS011;52267;51.984;20.956;2024-03-06T08:32:35;32.00;;;19.50;;
65597;SDS011;52267;51.984;20.956;2024-03-06T08:35:07;29.40;;;17.50;;
65597;SDS011;52267;51.984;20.956;2024-03-06T08:37:38;27.30;;;16.70;;
65597;SDS011;52267;51.984;20.956;2024-03-06T08:40:05;27.90;;;16.60;;
65597;SDS011;52267;51.984;20.956;2024-03-06T08:42:52;30.70;;;17.80;;
65597;SDS011;52267;51.984;20.956;2024-03-06T08:45:18;28.90;;;16.30;;
65597;SDS011;52267;51.984;20.956;2024-03-06T08:47:45;26.30;;;14.80;;
65597;SDS011;52267;51.984;20.956;2024-03-06T08:50:12;27.30;;;16.10;;
65597;SDS011;52267;51.984;20.956;2024-03-06T08:52:38;25.70;;;15.20;;
65597;SDS011;52267;51.984;20.956;2024-03-06T08:55:05;24.80;;;15.30;;
65597;SDS011;52267;51.984;20.956;2024-03-06T08:57:32;27.40;;;15.10;;
65597;SDS011;52267;51.984;20.956;2024-03-06T08:59:59;26.50;;;14.40;;
65597;SDS011;52267;51.984;20.956;2024-03-06T09:02:25;25.60;;;15.60;;
65597;SDS011;52267;51.984;20.956;2024-03-06T09:04:52;28.50;;;16.70;;
65597;SDS011;52267;51.984;20.956;2024-03-06T09:07:19;25.30;;;16.00;;
65597;SDS011;52267;51.984;20.956;2024-03-06T09:09:49;24.80;;;15.00;;
65597;SDS011;52267;51.984;20.956;2024-03-06T09:12:17;18.40;;;12.20;;
65597;SDS011;52267;51.984;20.956;2024-03-06T09:14:44;24.80;;;14.70;;
65597;SDS011;52267;51.984;20.956;2024-03-06T09:17:11;23.50;;;13.90;;
65597;SDS011;52267;51.984;20.956;2024-03-06T09:19:41;24.80;;;14.80;;
65597;SDS011;52267;51.984;20.956;2024-03-06T09:22:07;23.30;;;13.70;;
65597;SDS011;52267;51.984;20.956;2024-03-06T09:24:33;23.50;;;13.20;;
65597;SDS011;52267;51.984;20.956;2024-03-06T09:27:02;27.00;;;15.00;;
65597;SDS011;52267;51.984;20.956;2024-03-06T09:29:28;22.10;;;13.80;;
65597;SDS011;52267;51.984;20.956;2024-03-06T09:31:54;24.90;;;15.20;;
65597;SDS011;52267;51.984;20.956;2024-03-06T09:34:20;22.50;;;13.10;;
65597;SDS011;52267;51.984;20.956;2024-03-06T09:36:48;24.50;;;14.20;;
65597;SDS011;52267;51.984;20.956;2024-03-06T09:39:17;30.80;;;15.10;;
65597;SDS011;52267;51.984;20.956;2024-03-06T09:41:49;22.80;;;14.30;;
65597;SDS011;52267;51.984;20.956;2024-03-06T09:44:16;26.60;;;14.40;;
65597;SDS011;52267;51.984;20.956;2024-03-06T09:46:47;26.00;;;14.30;;
65597;SDS011;52267;51.984;20.956;2024-03-06T09:51:47;24.80;;;13.80;;
65597;SDS011;52267;51.984;20.956;2024-03-06T09:54:17;24.50;;;13.50;;
65597;SDS011;52267;51.984;20.956;2024-03-06T09:56:47;19.50;;;10.30;;
65597;SDS011;52267;51.984;20.956;2024-03-06T09:59:14;21.80;;;15.00;;
65597;SDS011;52267;51.984;20.956;2024-03-06T10:01:56;23.90;;;14.80;;
65597;SDS011;52267;51.984;20.956;2024-03-06T10:04:27;25.90;;;14.40;;
65597;SDS011;52267;51.984;20.956;2024-03-06T10:06:56;23.40;;;14.40;;
65597;SDS011;52267;51.984;20.956;2024-03-06T10:09:24;24.70;;;15.30;;
65597;SDS011;52267;51.984;20.956;2024-03-06T10:11:51;24.80;;;14.50;;
65597;SDS011;52267;51.984;20.956;2024-03-06T10:14:24;24.60;;;14.20;;
65597;SDS011;52267;51.984;20.956;2024-03-06T10:16:57;24.50;;;14.60;;
65597;SDS011;52267;51.984;20.956;2024-03-06T10:19:28;24.40;;;14.50;;
65597;SDS011;52267;51.984;20.956;2024-03-06T10:21:58;18.20;;;10.00;;
65597;SDS011;52267;51.984;20.956;2024-03-06T10:24:29;24.70;;;13.90;;
65597;SDS011;52267;51.984;20.956;2024-03-06T10:26:57;22.50;;;13.50;;
65597;SDS011;52267;51.984;20.956;2024-03-06T10:29:25;19.10;;;11.10;;
65597;SDS011;52267;51.984;20.956;2024-03-06T10:34:21;22.30;;;14.30;;
65597;SDS011;52267;51.984;20.956;2024-03-06T10:36:54;24.50;;;14.50;;
65597;SDS011;52267;51.984;20.956;2024-03-06T10:39:21;24.10;;;13.40;;
65597;SDS011;52267;51.984;20.956;2024-03-06T10:41:53;26.70;;;14.00;;
65597;SDS011;52267;51.984;20.956;2024-03-06T10:44:26;23.70;;;13.90;;
65597;SDS011;52267;51.984;20.956;2024-03-06T10:47:00;20.70;;;12.50;;
65597;SDS011;52267;51.984;20.956;2024-03-06T10:49:29;27.50;;;15.10;;
65597;SDS011;52267;51.984;20.956;2024-03-06T10:52:03;21.30;;;13.60;;
65597;SDS011;52267;51.984;20.956;2024-03-06T10:54:33;27.50;;;14.70;;
65597;SDS011;52267;51.984;20.956;2024-03-06T10:57:01;23.50;;;14.60;;
65597;SDS011;52267;51.984;20.956;2024-03-06T10:59:29;28.10;;;15.20;;
65597;SDS011;52267;51.984;20.956;2024-03-06T11:01:56;23.50;;;15.30;;
65597;SDS011;52267;51.984;20.956;2024-03-06T11:04:25;26.00;;;14.20;;
65597;SDS011;52267;51.984;20.956;2024-03-06T11:06:57;25.30;;;14.10;;
65597;SDS011;52267;51.984;20.956;2024-03-06T11:09:35;24.00;;;13.80;;
65597;SDS011;52267;51.984;20.956;2024-03-06T11:12:05;23.80;;;13.90;;
65597;SDS011;52267;51.984;20.956;2024-03-06T11:14:32;25.30;;;13.50;;
65597;SDS011;52267;51.984;20.956;2024-03-06T11:17:07;24.60;;;14.50;;
65597;SDS011;52267;51.984;20.956;2024-03-06T11:28:17;26.70;;;14.70;;
65597;SDS011;52267;51.984;20.956;2024-03-06T11:31:05;29.30;;;15.50;;
65597;SDS011;52267;51.984;20.956;2024-03-06T11:33:35;26.70;;;15.30;;
65597;SDS011;52267;51.984;20.956;2024-03-06T11:38:56;24.30;;;14.00;;
65597;SDS011;52267;51.984;20.956;2024-03-06T11:41:25;27.00;;;13.50;;
65597;SDS011;52267;51.984;20.956;2024-03-06T11:43:53;27.00;;;14.00;;
65597;SDS011;52267;51.984;20.956;2024-03-06T11:46:22;21.10;;;11.40;;
65597;SDS011;52267;51.984;20.956;2024-03-06T11:48:55;23.10;;;13.70;;
65597;SDS011;52267;51.984;20.956;2024-03-06T11:51:24;23.30;;;13.60;;
65597;SDS011;52267;51.984;20.956;2024-03-06T11:53:52;23.30;;;13.20;;
65597;SDS011;52267;51.984;20.956;2024-03-06T11:56:19;23.90;;;13.50;;
65597;SDS011;52267;51.984;20.956;2024-03-06T11:58:47;18.80;;;10.30;;
65597;SDS011;52267;51.984;20.956;2024-03-06T12:01:14;26.10;;;14.00;;
65597;SDS011;52267;51.984;20.956;2024-03-06T12:03:41;23.60;;;12.70;;
65597;SDS011;52267;51.984;20.956;2024-03-06T12:06:09;24.30;;;14.10;;
65597;SDS011;52267;51.984;20.956;2024-03-06T12:08:34;22.10;;;12.50;;
65597;SDS011;52267;51.984;20.956;2024-03-06T12:11:05;19.70;;;12.10;;
65597;SDS011;52267;51.984;20.956;2024-03-06T12:13:32;19.30;;;12.30;;
65597;SDS011;52267;51.984;20.956;2024-03-06T12:15:58;21.60;;;11.90;;
65597;SDS011;52267;51.984;20.956;2024-03-06T12:18:24;19.30;;;11.90;;
65597;SDS011;52267;51.984;20.956;2024-03-06T12:20:50;24.10;;;12.70;;
65597;SDS011;52267;51.984;20.956;2024-03-06T12:23:21;23.70;;;12.70;;
65597;SDS011;52267;51.984;20.956;2024-03-06T12:28:14;16.60;;;10.20;;
65597;SDS011;52267;51.984;20.956;2024-03-06T12:30:44;17.00;;;10.60;;
65597;SDS011;52267;51.984;20.956;2024-03-06T12:33:10;17.30;;;10.40;;
65597;SDS011;52267;51.984;20.956;2024-03-06T12:35:40;15.10;;;8.80;;
65597;SDS011;52267;51.984;20.956;2024-03-06T12:38:13;21.20;;;11.70;;
65597;SDS011;52267;51.984;20.956;2024-03-06T12:40:41;19.80;;;10.80;;
65597;SDS011;52267;51.984;20.956;2024-03-06T12:43:07;18.40;;;11.00;;
65597;SDS011;52267;51.984;20.956;2024-03-06T12:45:35;17.70;;;11.40;;
65597;SDS011;52267;51.984;20.956;2024-03-06T12:48:03;15.80;;;10.80;;
65597;SDS011;52267;51.984;20.956;2024-03-06T12:50:31;18.40;;;10.90;;
65597;SDS011;52267;51.984;20.956;2024-03-06T12:52:58;12.30;;;7.30;;
65597;SDS011;52267;51.984;20.956;2024-03-06T12:55:24;17.40;;;10.10;;
65597;SDS011;52267;51.984;20.956;2024-03-06T12:57:51;18.70;;;9.90;;
65597;SDS011;52267;51.984;20.956;2024-03-06T13:00:17;16.80;;;10.00;;
65597;SDS011;52267;51.984;20.956;2024-03-06T13:02:44;17.10;;;10.40;;
65597;SDS011;52267;51.984;20.956;2024-03-06T13:05:11;14.90;;;9.60;;
65597;SDS011;52267;51.984;20.956;2024-03-06T13:07:38;17.90;;;9.90;;
65597;SDS011;52267;51.984;20.956;2024-03-06T13:10:07;20.20;;;10.70;;
65597;SDS011;52267;51.984;20.956;2024-03-06T13:12:38;16.00;;;9.10;;
65597;SDS011;52267;51.984;20.956;2024-03-06T13:15:05;16.60;;;9.90;;
65597;SDS011;52267;51.984;20.956;2024-03-06T13:17:33;16.50;;;10.60;;
65597;SDS011;52267;51.984;20.956;2024-03-06T13:19:59;16.20;;;9.00;;
65597;SDS011;52267;51.984;20.956;2024-03-06T13:22:26;16.60;;;9.80;;
65597;SDS011;52267;51.984;20.956;2024-03-06T13:24:52;17.70;;;10.00;;
65597;SDS011;52267;51.984;20.956;2024-03-06T13:27:18;19.60;;;10.20;;
65597;SDS011;52267;51.984;20.956;2024-03-06T13:29:44;12.10;;;7.30;;
65597;SDS011;52267;51.984;20.956;2024-03-06T13:32:10;13.50;;;7.70;;
65597;SDS011;52267;51.984;20.956;2024-03-06T13:34:36;13.10;;;8.10;;
65597;SDS011;52267;51.984;20.956;2024-03-06T13:37:02;17.50;;;9.70;;
65597;SDS011;52267;51.984;20.956;2024-03-06T13:39:28;12.80;;;7.70;;
65597;SDS011;52267;51.984;20.956;2024-03-06T13:41:54;18.60;;;10.20;;
65597;SDS011;52267;51.984;20.956;2024-03-06T13:44:20;17.90;;;9.60;;
65597;SDS011;52267;51.984;20.956;2024-03-06T13:46:46;19.30;;;10.60;;
65597;SDS011;52267;51.984;20.956;2024-03-06T13:49:41;15.40;;;8.50;;
65597;SDS011;52267;51.984;20.956;2024-03-06T13:52:09;12.00;;;7.10;;
65597;SDS011;52267;51.984;20.956;2024-03-06T13:54:38;20.30;;;11.30;;
65597;SDS011;52267;51.984;20.956;2024-03-06T13:57:08;16.80;;;10.60;;
65597;SDS011;52267;51.984;20.956;2024-03-06T13:59:35;15.30;;;7.90;;
65597;SDS011;52267;51.984;20.956;2024-03-06T14:02:01;17.20;;;8.30;;
65597;SDS011;52267;51.984;20.956;2024-03-06T14:04:30;17.30;;;10.10;;
65597;SDS011;52267;51.984;20.956;2024-03-06T14:06:56;18.40;;;11.30;;
65597;SDS011;52267;51.984;20.956;2024-03-06T14:09:23;21.80;;;10.80;;
65597;SDS011;52267;51.984;20.956;2024-03-06T14:11:53;18.30;;;10.70;;
65597;SDS011;52267;51.984;20.956;2024-03-06T14:14:20;20.80;;;11.10;;
65597;SDS011;52267;51.984;20.956;2024-03-06T14:16:46;16.00;;;9.20;;
65597;SDS011;52267;51.984;20.956;2024-03-06T14:19:12;17.10;;;9.10;;
65597;SDS011;52267;51.984;20.956;2024-03-06T14:21:39;19.10;;;10.60;;
65597;SDS011;52267;51.984;20.956;2024-03-06T14:24:05;17.70;;;9.60;;
65597;SDS011;52267;51.984;20.956;2024-03-06T14:26:32;19.00;;;10.50;;
65597;SDS011;52267;51.984;20.956;2024-03-06T14:29:02;20.00;;;8.80;;
65597;SDS011;52267;51.984;20.956;2024-03-06T14:31:31;17.00;;;8.90;;